Time;durP1;ratioP1;P1;durP2;ratioP2;P2;SDS_P1;SDS_P2;PMS_P1;PMS_P2;Temp;Humidity;BMP_temperature;BMP_pressure;BME280_temperature;BME280_humidity;BME280_pressure;Samples;Min_cycle;Max_cycle;Signal;HPM_P1;HPM_P2
2023/03/06 00:03:06;;;;;;;2.85;2.63;;;;;;;0.46;100.00;97476.91;15302829;19;20043;-78
2023/03/06 00:08:38;;;;;;;3.40;2.58;;;;;;;0.43;100.00;97464.75;15306765;19;20017;-78
2023/03/06 00:14:03;;;;;;;3.13;2.80;;;;;;;0.40;100.00;97477.41;15303855;19;20399;-78
2023/03/06 00:19:30;;;;;;;3.42;2.90;;;;;;;0.40;100.00;97472.13;15304959;19;20608;-78
2023/03/06 00:24:55;;;;;;;3.55;3.25;;;;;;;0.38;100.00;97471.38;15304872;19;20014;-78
2023/03/06 00:30:23;;;;;;;3.13;2.60;;;;;;;0.37;100.00;97467.88;15303272;19;20011;-79
2023/03/06 00:35:50;;;;;;;3.03;2.72;;;;;;;0.35;100.00;97463.66;15296150;19;20379;-79
2023/03/06 00:41:17;;;;;;;3.20;2.78;;;;;;;0.37;100.00;97456.44;15331816;19;20026;-78
2023/03/06 00:46:42;;;;;;;2.75;2.55;;;;;;;0.33;100.00;97452.34;15307081;19;20017;-77
2023/03/06 00:52:09;;;;;;;3.00;2.70;;;;;;;0.30;100.00;97451.63;15303313;19;20014;-78
2023/03/06 00:57:34;;;;;;;3.33;2.97;;;;;;;0.26;100.00;97446.69;15297522;19;20019;-79
2023/03/06 01:02:58;;;;;;;3.03;2.72;;;;;;;0.21;100.00;97439.09;15302139;19;20498;-77
2023/03/06 01:08:32;;;;;;;3.92;3.10;;;;;;;0.20;100.00;97434.75;15293752;19;20018;-81
2023/03/06 01:13:57;;;;;;;4.22;3.00;;;;;;;0.21;100.00;97425.84;15300699;19;20014;-78
2023/03/06 01:19:22;;;;;;;3.17;2.90;;;;;;;0.20;100.00;97421.53;15302052;19;20016;-80
2023/03/06 01:24:49;;;;;;;3.67;3.38;;;;;;;0.16;100.00;97422.75;15299492;19;20058;-79
2023/03/06 01:30:16;;;;;;;3.50;3.20;;;;;;;0.14;100.00;97414.91;15302022;19;20010;-78
2023/03/06 01:35:41;;;;;;;4.75;3.30;;;;;;;0.06;100.00;97405.91;15295271;19;20015;-78
2023/03/06 01:41:14;;;;;;;4.03;3.67;;;;;;;0.02;100.00;97399.16;15296982;19;20031;-78
2023/03/06 01:46:41;;;;;;;4.53;3.90;;;;;;;-0.01;100.00;97395.78;15297034;19;20010;-79
2023/03/06 01:52:09;;;;;;;4.10;3.65;;;;;;;-0.05;100.00;97394.31;15296830;19;20025;-78
2023/03/06 01:57:41;;;;;;;4.63;4.20;;;;;;;-0.04;100.00;97397.81;15296364;19;20086;-78
2023/03/06 02:03:12;;;;;;;5.35;4.00;;;;;;;-0.11;100.00;97389.50;15297667;19;20014;-78
2023/03/06 02:08:43;;;;;;;4.45;3.85;;;;;;;-0.15;100.00;97388.06;15297255;19;20015;-78
2023/03/06 02:14:11;;;;;;;4.72;4.22;;;;;;;-0.21;100.00;97370.84;15295181;19;20022;-79
2023/03/06 02:19:53;;;;;;;4.50;4.10;;;;;;;-0.24;100.00;97367.59;15307205;19;20006;-78
2023/03/06 02:25:33;;;;;;;4.70;4.05;;;;;;;-0.25;100.00;97365.91;15353584;19;20388;-77
2023/03/06 02:31:01;;;;;;;5.13;4.40;;;;;;;-0.27;100.00;97362.53;15294808;19;20010;-77
2023/03/06 02:36:26;;;;;;;5.07;4.25;;;;;;;-0.33;100.00;97355.91;15290678;19;20014;-78
2023/03/06 02:41:54;;;;;;;4.55;4.13;;;;;;;-0.38;100.00;97351.00;15295471;19;20011;-78
2023/03/06 02:47:19;;;;;;;5.50;4.40;;;;;;;-0.45;100.00;97343.63;15291319;19;20096;-78
2023/03/06 02:52:44;;;;;;;4.65;4.15;;;;;;;-0.49;100.00;97332.47;15296183;19;20023;-77
2023/03/06 02:58:12;;;;;;;5.30;4.43;;;;;;;-0.54;100.00;97337.28;15292841;19;20014;-79
2023/03/06 03:03:37;;;;;;;4.97;4.35;;;;;;;-0.60;100.00;97332.44;15287867;19;20010;-76
2023/03/06 03:09:10;;;;;;;5.43;4.53;;;;;;;-0.68;100.00;97317.16;15290108;19;20011;-77
2023/03/06 03:14:38;;;;;;;5.53;4.50;;;;;;;-0.74;100.00;97318.47;15302950;19;20029;-77
2023/03/06 03:20:03;;;;;;;5.60;4.72;;;;;;;-0.80;100.00;97314.50;15300900;19;20516;-77
2023/03/06 03:25:29;;;;;;;5.13;4.63;;;;;;;-0.85;100.00;97313.16;15301472;19;20090;-77
2023/03/06 03:30:56;;;;;;;7.95;5.38;;;;;;;-0.86;100.00;97319.41;15303544;19;20011;-77
2023/03/06 03:36:21;;;;;;;5.97;5.38;;;;;;;-0.84;100.00;97312.22;15300731;19;20081;-77
2023/03/06 03:41:46;;;;;;;5.90;5.18;;;;;;;-0.85;100.00;97305.22;15302455;19;20025;-78
2023/03/06 03:47:14;;;;;;;5.95;5.00;;;;;;;-0.88;100.00;97300.19;15292045;19;20011;-76
2023/03/06 03:52:40;;;;;;;6.45;4.97;;;;;;;-0.94;100.00;97286.47;15288486;19;20007;-77
2023/03/06 03:58:05;;;;;;;5.82;4.95;;;;;;;-0.98;100.00;97290.31;15289993;19;20032;-76
2023/03/06 04:03:34;;;;;;;5.88;5.03;;;;;;;-1.01;100.00;97274.69;15296728;19;20013;-78
2023/03/06 04:09:07;;;;;;;5.93;5.30;;;;;;;-1.02;100.00;97278.28;15298770;19;20073;-78
2023/03/06 04:14:34;;;;;;;7.00;5.30;;;;;;;-0.99;100.00;97272.75;15292663;19;20017;-79
2023/03/06 04:20:03;;;;;;;5.85;5.30;;;;;;;-0.96;100.00;97261.94;15295290;19;20047;-79
2023/03/06 04:25:29;;;;;;;5.88;5.22;;;;;;;-0.93;100.00;97253.78;15291283;19;20533;-78
2023/03/06 04:30:55;;;;;;;5.15;4.65;;;;;;;-0.91;100.00;97253.66;15299479;19;20015;-76
2023/03/06 04:36:28;;;;;;;5.93;5.32;;;;;;;-0.89;100.00;97240.34;15325286;19;20019;-78
2023/03/06 04:41:54;;;;;;;6.07;5.20;;;;;;;-0.81;100.00;97248.50;15308421;19;20022;-78
2023/03/06 04:47:19;;;;;;;6.53;5.50;;;;;;;-0.75;100.00;97237.44;15290435;19;20465;-78
2023/03/06 04:52:46;;;;;;;5.60;5.10;;;;;;;-0.70;100.00;97232.66;15292331;19;20007;-78
2023/03/06 04:58:13;;;;;;;6.22;4.80;;;;;;;-0.67;100.00;97220.97;15295587;19;20025;-77
2023/03/06 05:03:42;;;;;;;5.45;4.95;;;;;;;-0.66;100.00;97215.59;15303647;19;20058;-78
2023/03/06 05:09:17;;;;;;;5.63;5.05;;;;;;;-0.63;100.00;97207.41;15353884;19;20058;-78
2023/03/06 05:14:42;;;;;;;5.32;4.82;;;;;;;-0.60;100.00;97194.91;15297643;19;20186;-77
2023/03/06 05:20:08;;;;;;;6.32;5.30;;;;;;;-0.59;100.00;97200.09;15290684;19;20019;-76
2023/03/06 05:25:35;;;;;;;5.28;4.78;;;;;;;-0.58;100.00;97201.75;15289792;19;20044;-76
2023/03/06 05:31:01;;;;;;;6.90;5.50;;;;;;;-0.55;100.00;97190.91;15291686;19;20070;-76
2023/03/06 05:36:27;;;;;;;5.95;5.32;;;;;;;-0.52;100.00;97189.81;15288086;19;20402;-76
2023/03/06 05:41:55;;;;;;;5.40;4.85;;;;;;;-0.47;100.00;97188.50;15296328;19;20007;-77
2023/03/06 05:47:20;;;;;;;6.10;5.50;;;;;;;-0.45;100.00;97184.88;15303267;19;20025;-78
2023/03/06 05:52:44;;;;;;;6.35;5.70;;;;;;;-0.44;100.00;97187.44;15307153;19;20018;-78
2023/03/06 05:58:11;;;;;;;6.10;5.50;;;;;;;-0.42;100.00;97189.94;15296984;19;20010;-78
2023/03/06 06:03:36;;;;;;;5.82;5.22;;;;;;;-0.41;100.00;97187.16;15295270;19;20035;-77
2023/03/06 06:09:08;;;;;;;6.03;5.40;;;;;;;-0.39;100.00;97182.59;15288192;19;20017;-77
2023/03/06 06:14:37;;;;;;;5.97;5.35;;;;;;;-0.37;100.00;97185.97;15290334;19;20010;-77
2023/03/06 06:20:01;;;;;;;5.53;5.03;;;;;;;-0.34;100.00;97187.50;15285278;19;20481;-78
2023/03/06 06:25:26;;;;;;;7.40;5.70;;;;;;;-0.35;100.00;97186.69;15286610;19;20350;-78
2023/03/06 06:30:53;;;;;;;7.90;5.82;;;;;;;-0.31;100.00;97166.09;15290721;19;20362;-78
2023/03/06 06:36:19;;;;;;;7.00;6.03;;;;;;;-0.28;100.00;97165.00;15299141;19;20414;-79
2023/03/06 06:41:46;;;;;;;9.50;5.70;;;;;;;-0.25;100.00;97159.47;15308358;19;20022;-78
2023/03/06 06:47:37;;;;;;;6.55;5.93;;;;;;;-0.22;100.00;97164.53;15312537;19;20010;-79
2023/03/06 06:53:01;;;;;;;7.57;6.05;;;;;;;-0.19;100.00;97159.00;15309838;19;20010;-79
2023/03/06 06:58:26;;;;;;;6.80;6.10;;;;;;;-0.13;100.00;97157.66;15301282;19;20708;-78
2023/03/06 07:03:53;;;;;;;8.55;6.55;;;;;;;-0.08;100.00;97166.91;15301618;19;20017;-78
2023/03/06 07:09:24;;;;;;;7.60;6.60;;;;;;;-0.05;100.00;97168.44;15300359;19;20013;-78
2023/03/06 07:14:49;;;;;;;7.38;6.40;;;;;;;0.02;100.00;97166.13;15302465;19;20013;-78
2023/03/06 07:20:18;;;;;;;9.02;6.93;;;;;;;0.04;100.00;97161.56;15298794;19;20028;-77
2023/03/06 07:25:43;;;;;;;8.05;6.82;;;;;;;0.13;100.00;97174.03;15301945;19;20029;-78
2023/03/06 07:31:10;;;;;;;8.70;7.10;;;;;;;0.15;100.00;97174.75;15304317;19;20096;-78
2023/03/06 07:36:39;;;;;;;9.02;7.03;;;;;;;0.19;100.00;97184.09;15296602;19;20027;-77
2023/03/06 07:42:03;;;;;;;8.80;7.40;;;;;;;0.26;100.00;97180.00;15306655;19;20060;-78
2023/03/06 07:47:38;;;;;;;9.65;7.60;;;;;;;0.33;100.00;97180.34;15303047;19;20035;-77
2023/03/06 07:53:05;;;;;;;8.80;7.30;;;;;;;0.42;100.00;97184.00;15357278;19;20029;-78
2023/03/06 07:58:30;;;;;;;8.45;7.60;;;;;;;0.50;100.00;97176.28;15309018;19;20018;-77
2023/03/06 08:03:55;;;;;;;8.00;7.20;;;;;;;0.59;100.00;97167.53;15299955;19;20014;-77
2023/03/06 08:09:29;;;;;;;8.68;7.68;;;;;;;0.72;100.00;97169.97;15289285;19;20015;-77
2023/03/06 08:14:54;;;;;;;8.32;6.63;;;;;;;0.84;100.00;97170.78;15297270;19;20051;-78
2023/03/06 08:20:21;;;;;;;9.00;7.20;;;;;;;0.89;100.00;97173.84;15294890;19;20040;-78
2023/03/06 08:25:57;;;;;;;8.20;7.05;;;;;;;1.00;100.00;97172.13;15300776;19;20504;-78
2023/03/06 08:31:31;;;;;;;7.55;6.75;;;;;;;1.04;100.00;97162.91;15362338;19;20014;-78
2023/03/06 08:36:56;;;;;;;8.48;6.97;;;;;;;1.13;100.00;97164.75;15297084;19;20014;-78
2023/03/06 08:42:23;;;;;;;9.00;7.30;;;;;;;1.21;100.00;97159.63;15302917;19;20026;-79
2023/03/06 08:47:48;;;;;;;7.78;6.75;;;;;;;1.27;100.00;97175.97;15321805;19;20027;-79
2023/03/06 08:53:12;;;;;;;8.00;7.20;;;;;;;1.28;100.00;97173.22;15323971;19;20014;-79
2023/03/06 08:58:40;;;;;;;9.52;7.68;;;;;;;1.27;100.00;97179.50;15325825;19;20010;-79
2023/03/06 09:04:10;;;;;;;8.25;7.25;;;;;;;1.26;100.00;97183.13;15321317;19;20014;-78
2023/03/06 09:09:41;;;;;;;8.88;7.93;;;;;;;1.25;100.00;97197.34;15317642;19;20014;-78
2023/03/06 09:15:11;;;;;;;8.45;7.57;;;;;;;1.28;100.00;97204.19;15314328;19;20011;-79
2023/03/06 09:20:35;;;;;;;8.85;7.57;;;;;;;1.36;100.00;97209.66;15313638;19;20018;-79
2023/03/06 09:26:03;;;;;;;8.88;7.97;;;;;;;1.36;100.00;97209.66;15312654;19;20014;-79
2023/03/06 09:31:30;;;;;;;8.90;8.00;;;;;;;1.32;100.00;97213.56;15319610;19;20039;-79
2023/03/06 09:36:56;;;;;;;9.05;8.15;;;;;;;1.29;100.00;97211.19;15314304;19;20488;-79
2023/03/06 09:42:25;;;;;;;9.35;8.07;;;;;;;1.25;100.00;97212.41;15315911;19;20027;-79
2023/03/06 09:47:59;;;;;;;9.43;8.43;;;;;;;1.21;100.00;97218.00;15309584;19;20027;-79
2023/03/06 09:53:46;;;;;;;10.32;9.30;;;;;;;1.28;100.00;97220.13;15318738;19;20027;-79
2023/03/06 09:59:17;;;;;;;11.48;9.48;;;;;;;1.33;100.00;97226.69;15316530;19;20397;-79
2023/03/06 10:04:49;;;;;;;10.35;8.88;;;;;;;1.35;100.00;97218.63;15310313;19;20011;-79
2023/03/06 10:10:22;;;;;;;11.00;9.52;;;;;;;1.38;100.00;97223.66;15312556;19;20092;-79
2023/03/06 10:15:51;;;;;;;10.38;9.23;;;;;;;1.42;100.00;97213.59;15304177;19;20018;-80
2023/03/06 10:21:30;;;;;;;11.63;8.70;;;;;;;1.49;100.00;97206.81;15301769;19;20039;-79
2023/03/06 10:27:00;;;;;;;10.50;9.40;;;;;;;1.57;100.00;97212.28;15310633;19;20042;-79
2023/03/06 10:32:30;;;;;;;9.07;8.05;;;;;;;1.69;100.00;97210.38;15315612;19;20014;-79
2023/03/06 10:38:25;;;;;;;8.37;7.47;;;;;;;1.77;100.00;97207.00;15327958;19;20014;-79
2023/03/06 10:44:20;;;;;;;8.77;7.82;;;;;;;1.90;100.00;97206.78;15334922;19;20450;-78
2023/03/06 10:49:45;;;;;;;8.90;8.02;;;;;;;2.04;100.00;97203.72;15303331;19;20013;-78
2023/03/06 10:55:37;;;;;;;8.40;7.55;;;;;;;2.11;100.00;97199.53;15313280;19;20011;-79
2023/03/06 11:01:14;;;;;;;8.68;7.78;;;;;;;2.15;100.00;97190.31;15298879;19;20550;-79
2023/03/06 11:06:39;;;;;;;8.68;7.80;;;;;;;2.24;100.00;97191.28;15285087;19;20422;-78
2023/03/06 11:12:29;;;;;;;8.38;7.57;;;;;;;2.34;100.00;97187.81;15286303;19;20469;-78
2023/03/06 11:17:58;;;;;;;8.20;7.40;;;;;;;2.52;100.00;97182.63;15263685;19;20007;-79
2023/03/06 11:23:25;;;;;;;8.40;7.25;;;;;;;2.65;100.00;97179.66;15282280;19;20023;-77
2023/03/06 11:29:05;;;;;;;7.20;6.50;;;;;;;2.67;100.00;97165.25;15287265;19;20003;-77
2023/03/06 11:34:38;;;;;;;7.38;6.57;;;;;;;2.69;100.00;97152.66;15298589;19;20015;-77
2023/03/06 11:40:14;;;;;;;7.47;6.78;;;;;;;2.68;100.00;97144.81;15299637;19;20010;-78
2023/03/06 11:45:44;;;;;;;8.07;7.28;;;;;;;2.61;100.00;97131.25;15298119;19;20021;-77
2023/03/06 11:51:15;;;;;;;8.75;7.85;;;;;;;2.66;100.00;97126.34;15299069;19;20022;-77
2023/03/06 11:56:48;;;;;;;8.60;7.75;;;;;;;2.82;100.00;97130.22;15291161;19;20097;-77
2023/03/06 12:02:30;;;;;;;7.88;7.18;;;;;;;2.85;100.00;97106.81;15294489;19;20026;-77
2023/03/06 12:08:02;;;;;;;7.82;7.13;;;;;;;2.84;100.00;97102.50;15293356;19;20413;-77
2023/03/06 12:14:04;;;;;;;8.30;7.50;;;;;;;2.89;100.00;97081.63;15297952;19;20073;-77
2023/03/06 12:19:37;;;;;;;;;;;;;;;3.06;100.00;97076.50;14803330;19;10001142;-78
2023/03/06 12:25:24;;;;;;;6.03;5.50;;;;;;;3.21;100.00;97068.88;15316031;19;19923;-79
2023/03/06 12:31:28;;;;;;;6.57;5.97;;;;;;;3.28;100.00;97063.81;15298980;19;20019;-78
2023/03/06 12:37:08;;;;;;;6.28;5.72;;;;;;;3.47;100.00;97058.34;15290928;19;20082;-78
2023/03/06 12:42:47;;;;;;;5.30;4.80;;;;;;;3.55;100.00;97038.97;15297298;19;20027;-78
2023/03/06 12:48:25;;;;;;;4.90;4.50;;;;;;;3.60;100.00;97042.00;15293214;19;20750;-78
2023/03/06 12:53:53;;;;;;;4.00;3.70;;;;;;;3.65;100.00;97039.72;15294096;19;20025;-78
2023/03/06 12:59:47;;;;;;;3.30;3.10;;;;;;;3.94;100.00;97035.97;15294670;19;20010;-77
2023/03/06 13:05:53;;;;;;;3.00;2.80;;;;;;;4.11;100.00;97039.63;15294992;19;20022;-77
2023/03/06 13:11:38;;;;;;;3.00;2.80;;;;;;;4.19;100.00;97020.19;15295229;19;20452;-78
2023/03/06 13:17:33;;;;;;;3.03;2.83;;;;;;;4.11;100.00;97012.13;15293803;19;20010;-78
2023/03/06 13:22:57;;;;;;;3.30;3.00;;;;;;;3.98;100.00;97025.88;15297626;19;20551;-78
2023/03/06 13:28:48;;;;;;;3.30;3.00;;;;;;;2.87;100.00;97042.88;15294188;19;20547;-77
2023/03/06 13:34:34;;;;;;;4.03;3.70;;;;;;;2.49;100.00;97053.47;15320263;19;20006;-78
2023/03/06 13:40:27;;;;;;;3.83;3.40;;;;;;;2.39;100.00;97064.16;15324605;19;20022;-78
2023/03/06 13:45:55;;;;;;;4.10;3.70;;;;;;;2.23;100.00;97064.75;15298214;19;20308;-78
2023/03/06 13:51:27;;;;;;;4.30;3.90;;;;;;;2.14;100.00;97071.75;15299515;19;20039;-78
2023/03/06 13:57:24;;;;;;;4.50;4.10;;;;;;;2.10;100.00;97061.53;15293683;19;20097;-78
2023/03/06 14:03:28;;;;;;;4.05;3.75;;;;;;;2.08;100.00;97064.31;15286993;19;20019;-78
2023/03/06 14:09:01;;;;;;;4.38;3.97;;;;;;;2.22;100.00;97062.22;15287408;19;20022;-78
2023/03/06 14:14:35;;;;;;;3.63;3.33;;;;;;;2.28;100.00;97045.72;15299157;19;20014;-77
2023/03/06 14:20:05;;;;;;;3.97;3.67;;;;;;;2.31;100.00;97056.03;15288084;19;20426;-79
2023/03/06 14:25:32;;;;;;;3.80;3.50;;;;;;;2.33;100.00;97040.78;15287407;19;20021;-77
2023/03/06 14:30:57;;;;;;;3.30;3.10;;;;;;;2.34;100.00;97034.50;15288502;19;20014;-77
2023/03/06 14:36:29;;;;;;;3.50;3.20;;;;;;;2.35;100.00;97041.50;15279728;19;20028;-77
2023/03/06 14:41:53;;;;;;;3.85;3.55;;;;;;;2.36;100.00;97032.53;15284123;19;20863;-78
2023/03/06 14:47:28;;;;;;;4.05;3.72;;;;;;;2.41;100.00;97029.44;15284201;19;20011;-77
2023/03/06 14:52:55;;;;;;;3.63;3.33;;;;;;;2.51;100.00;97027.59;15285346;19;20078;-77
2023/03/06 14:58:23;;;;;;;3.80;3.50;;;;;;;2.54;100.00;97034.44;15283405;19;20490;-78
2023/03/06 15:03:52;;;;;;;4.40;3.30;;;;;;;2.58;100.00;97022.53;15287053;19;20454;-77
2023/03/06 15:09:30;;;;;;;4.28;3.50;;;;;;;2.66;100.00;97027.94;15296581;19;20632;-77
2023/03/06 15:15:00;;;;;;;3.70;3.40;;;;;;;2.69;100.00;97032.16;15300877;19;20018;-77
2023/03/06 15:20:47;;;;;;;3.70;3.40;;;;;;;2.71;100.00;97025.69;15301254;19;20013;-77
2023/03/06 15:26:33;;;;;;;3.60;3.30;;;;;;;2.73;100.00;97026.41;15295628;19;20094;-77
2023/03/06 15:31:58;;;;;;;4.00;3.63;;;;;;;2.74;100.00;97032.53;15298679;19;20029;-77
2023/03/06 15:37:30;;;;;;;3.92;3.63;;;;;;;2.74;100.00;97033.41;15292825;19;20027;-78
2023/03/06 15:42:58;;;;;;;4.43;3.70;;;;;;;2.66;100.00;97025.28;15290152;19;20498;-78
2023/03/06 15:48:23;;;;;;;3.95;3.60;;;;;;;2.67;100.00;97034.94;15293984;19;20013;-79
2023/03/06 15:53:47;;;;;;;4.18;3.80;;;;;;;2.62;100.00;97037.22;15301224;19;20429;-78
2023/03/06 15:59:32;;;;;;;4.78;4.38;;;;;;;2.55;100.00;97038.75;15300134;19;20076;-77
2023/03/06 16:05:01;;;;;;;5.40;4.90;;;;;;;2.42;100.00;97039.91;15299257;19;20669;-77
2023/03/06 16:10:36;;;;;;;5.72;5.22;;;;;;;2.01;100.00;97057.91;15300862;19;20031;-76
2023/03/06 16:15:57;;;;;;;6.28;5.70;;;;;;;2.17;100.00;97059.16;15323394;19;20018;-75
2023/03/06 16:21:23;;;;;;;6.40;5.80;;;;;;;1.89;100.00;97073.13;15293652;19;20344;-77
2023/03/06 16:26:49;;;;;;;7.28;6.57;;;;;;;1.73;100.00;97084.31;15296390;19;20099;-76
2023/03/06 16:32:17;;;;;;;6.88;6.28;;;;;;;1.68;100.00;97081.25;15298943;19;20070;-77
2023/03/06 16:37:44;;;;;;;7.25;6.57;;;;;;;1.65;100.00;97089.47;15292946;19;20010;-79
2023/03/06 16:43:12;;;;;;;7.75;7.05;;;;;;;1.61;100.00;97090.72;15295741;19;20022;-79
2023/03/06 16:48:39;;;;;;;7.63;6.93;;;;;;;1.54;100.00;97095.75;15298526;19;20345;-76
2023/03/06 16:54:04;;;;;;;7.57;6.82;;;;;;;1.49;100.00;97104.13;15295817;19;20232;-76
2023/03/06 16:59:28;;;;;;;7.35;6.75;;;;;;;1.47;100.00;97095.44;15296149;19;20360;-77
2023/03/06 17:04:57;;;;;;;8.07;7.28;;;;;;;1.39;100.00;97097.97;15295687;19;20017;-77
2023/03/06 17:10:29;;;;;;;7.65;6.95;;;;;;;1.36;100.00;97108.84;15289432;19;20398;-76
2023/03/06 17:15:58;;;;;;;8.02;7.30;;;;;;;1.30;100.00;97110.22;15288429;19;20014;-78
2023/03/06 17:21:29;;;;;;;7.47;6.78;;;;;;;1.22;100.00;97108.25;15290005;19;20411;-78
2023/03/06 17:26:54;;;;;;;7.70;7.00;;;;;;;1.11;100.00;97111.03;15290838;19;20036;-77
2023/03/06 17:32:19;;;;;;;7.95;7.25;;;;;;;1.05;100.00;97112.41;15297242;19;20022;-78
2023/03/06 17:37:47;;;;;;;8.10;7.30;;;;;;;1.00;100.00;97117.25;15292531;19;20033;-77
2023/03/06 17:43:11;;;;;;;9.30;8.38;;;;;;;0.96;100.00;97113.16;15290379;19;20017;-80
2023/03/06 17:48:37;;;;;;;9.48;8.57;;;;;;;0.94;100.00;97124.91;15306189;19;20014;-79
2023/03/06 17:54:04;;;;;;;10.70;9.60;;;;;;;0.95;100.00;97132.72;15312612;19;20047;-79
2023/03/06 17:59:29;;;;;;;11.95;10.23;;;;;;;0.92;100.00;97119.75;15304651;19;20006;-78
2023/03/06 18:04:53;;;;;;;9.50;8.50;;;;;;;0.92;100.00;97117.09;15298683;19;20407;-79
2023/03/06 18:10:21;;;;;;;8.52;7.72;;;;;;;0.90;100.00;97109.25;15297116;19;20693;-79
2023/03/06 18:15:47;;;;;;;8.65;7.80;;;;;;;0.81;100.00;97127.78;15294275;19;20025;-79
2023/03/06 18:21:15;;;;;;;7.93;7.22;;;;;;;0.80;100.00;97124.28;15289167;19;20014;-79
2023/03/06 18:26:43;;;;;;;7.85;7.03;;;;;;;0.83;100.00;97128.47;15296948;19;20014;-78
2023/03/06 18:32:09;;;;;;;7.50;6.80;;;;;;;0.76;100.00;97139.59;15294779;19;20024;-79
2023/03/06 18:37:33;;;;;;;6.70;6.10;;;;;;;0.72;100.00;97132.88;15287136;19;20025;-79
2023/03/06 18:43:01;;;;;;;7.93;7.13;;;;;;;0.65;100.00;97125.59;15286698;19;20017;-78
2023/03/06 18:48:25;;;;;;;7.40;6.70;;;;;;;0.58;100.00;97126.09;15284763;19;20017;-79
2023/03/06 18:53:50;;;;;;;7.15;6.55;;;;;;;0.52;100.00;97125.78;15284971;19;20018;-79
2023/03/06 18:59:21;;;;;;;7.70;6.95;;;;;;;0.41;100.00;97124.91;15290680;19;20102;-77
2023/03/06 19:04:46;;;;;;;7.95;7.15;;;;;;;0.38;100.00;97125.16;15289932;19;20010;-77
2023/03/06 19:10:19;;;;;;;8.00;7.30;;;;;;;0.33;100.00;97118.56;15287558;19;20019;-80
2023/03/06 19:15:48;;;;;;;8.13;7.32;;;;;;;0.35;100.00;97119.28;15289322;19;20035;-77
2023/03/06 19:21:16;;;;;;;8.10;7.30;;;;;;;0.32;100.00;97119.53;15283713;19;20019;-77
2023/03/06 19:26:42;;;;;;;7.97;7.28;;;;;;;0.35;100.00;97119.28;15277069;19;20011;-77
2023/03/06 19:32:09;;;;;;;7.80;7.10;;;;;;;0.39;100.00;97118.88;15284270;19;20025;-77
2023/03/06 19:37:35;;;;;;;8.13;7.32;;;;;;;0.42;100.00;97115.97;15260727;19;20078;-78
2023/03/06 19:42:59;;;;;;;8.18;7.38;;;;;;;0.43;100.00;97115.00;15280593;19;20021;-76
2023/03/06 19:48:27;;;;;;;8.40;7.60;;;;;;;0.44;100.00;97107.88;15274262;19;20069;-77
2023/03/06 19:53:52;;;;;;;8.57;7.72;;;;;;;0.45;100.00;97107.78;15290290;19;20025;-77
2023/03/06 19:59:16;;;;;;;9.90;8.90;;;;;;;0.44;100.00;97097.28;15300254;19;20015;-77
2023/03/06 20:04:43;;;;;;;9.32;8.43;;;;;;;0.43;100.00;97092.97;15345076;19;20010;-77
2023/03/06 20:10:15;;;;;;;9.20;8.40;;;;;;;0.40;100.00;97085.28;15310225;19;20018;-78
2023/03/06 20:15:40;;;;;;;10.27;9.38;;;;;;;0.38;100.00;97081.94;15299324;19;20054;-79
2023/03/06 20:21:10;;;;;;;10.77;9.75;;;;;;;0.36;100.00;97076.75;15301419;19;20611;-78
2023/03/06 20:26:36;;;;;;;10.60;9.57;;;;;;;0.34;100.00;97072.56;15300502;19;20021;-78
2023/03/06 20:32:01;;;;;;;11.70;10.60;;;;;;;0.31;100.00;97076.31;15288921;19;20015;-78
2023/03/06 20:37:29;;;;;;;11.63;10.52;;;;;;;0.29;100.00;97072.94;15298556;19;20364;-78
2023/03/06 20:42:56;;;;;;;11.98;10.85;;;;;;;0.29;100.00;97068.47;15302944;19;20014;-78
2023/03/06 20:48:21;;;;;;;12.60;11.15;;;;;;;0.24;100.00;97068.03;15299528;19;20019;-78
2023/03/06 20:53:48;;;;;;;12.30;11.10;;;;;;;0.20;100.00;97058.66;15298003;19;20024;-78
2023/03/06 20:59:14;;;;;;;11.95;10.75;;;;;;;0.20;100.00;97060.50;15298714;19;20024;-81
2023/03/06 21:04:39;;;;;;;11.50;10.40;;;;;;;0.20;100.00;97052.53;15295315;19;20018;-81
2023/03/06 21:10:15;;;;;;;12.48;11.27;;;;;;;0.20;100.00;97053.38;15295371;19;20015;-80
2023/03/06 21:15:40;;;;;;;12.10;10.90;;;;;;;0.23;100.00;97047.00;15304373;19;20015;-80
2023/03/06 21:21:06;;;;;;;11.82;10.65;;;;;;;0.22;100.00;97046.13;15307982;19;20503;-79
2023/03/06 21:26:35;;;;;;;12.57;11.40;;;;;;;0.23;100.00;97042.53;15305227;19;20906;-80
2023/03/06 21:32:00;;;;;;;12.32;11.13;;;;;;;0.22;100.00;97034.72;15304791;19;20014;-79
2023/03/06 21:37:24;;;;;;;12.38;11.18;;;;;;;0.21;100.00;97033.03;15297865;19;20093;-79
2023/03/06 21:42:53;;;;;;;13.32;12.02;;;;;;;0.15;100.00;97027.28;15303805;19;20019;-79
2023/03/06 21:48:17;;;;;;;12.52;11.32;;;;;;;0.11;100.00;97022.38;15303614;19;20088;-79
2023/03/06 21:53:43;;;;;;;12.15;10.95;;;;;;;0.08;100.00;97027.91;15310068;19;20066;-79
2023/03/06 21:59:10;;;;;;;11.70;10.60;;;;;;;0.05;100.00;97010.50;15349177;19;20047;-80
2023/03/06 22:04:35;;;;;;;13.02;11.73;;;;;;;0.03;100.00;97003.66;15291678;19;20014;-78
2023/03/06 22:10:06;;;;;;;13.60;12.30;;;;;;;0.01;100.00;97005.59;15290995;19;20021;-79
2023/03/06 22:15:34;;;;;;;15.00;13.50;;;;;;;-0.04;100.00;96988.28;15293779;19;20014;-81
2023/03/06 22:20:59;;;;;;;12.73;11.43;;;;;;;-0.07;100.00;96988.56;15295683;19;20523;-80
2023/03/06 22:26:23;;;;;;;12.18;10.88;;;;;;;-0.09;100.00;96982.56;15298373;19;20089;-80
2023/03/06 22:31:51;;;;;;;12.35;11.15;;;;;;;-0.12;100.00;96976.69;15301491;19;20025;-79
2023/03/06 22:37:16;;;;;;;11.95;10.75;;;;;;;-0.14;100.00;96975.97;15297585;19;20017;-80
2023/03/06 22:42:42;;;;;;;11.82;10.30;;;;;;;-0.06;100.00;96974.34;15295045;19;20050;-81
2023/03/06 22:48:09;;;;;;;11.93;10.65;;;;;;;-0.05;100.00;96969.88;15287230;19;20017;-81
2023/03/06 22:53:34;;;;;;;11.70;10.57;;;;;;;-0.02;100.00;96967.81;15292725;19;20020;-81
2023/03/06 22:58:59;;;;;;;11.45;10.30;;;;;;;-0.02;100.00;96948.47;15294807;19;20013;-78
2023/03/06 23:04:27;;;;;;;11.40;10.30;;;;;;;-0.02;100.00;96946.63;15290912;19;20569;-80
2023/03/06 23:09:52;;;;;;;11.55;10.35;;;;;;;-0.03;100.00;96931.72;15289472;19;20094;-79
2023/03/06 23:15:36;;;;;;;12.00;10.88;;;;;;;-0.04;100.00;96932.69;15293908;19;20022;-78
2023/03/06 23:21:23;;;;;;;11.80;10.60;;;;;;;-0.04;100.00;96932.69;15296539;19;20010;-79
2023/03/06 23:27:07;;;;;;;11.48;10.38;;;;;;;-0.06;100.00;96921.38;15301922;19;20407;-80
2023/03/06 23:32:34;;;;;;;11.85;10.65;;;;;;;-0.09;100.00;96924.31;15308654;19;20376;-80
2023/03/06 23:38:01;;;;;;;11.10;10.00;;;;;;;-0.12;100.00;96923.75;15305364;19;20010;-79
2023/03/06 23:43:26;;;;;;;11.70;10.07;;;;;;;-0.13;100.00;96914.94;15302467;19;20442;-79
2023/03/06 23:48:52;;;;;;;11.63;10.40;;;;;;;-0.15;100.00;96914.25;15311213;19;20043;-77
2023/03/06 23:54:19;;;;;;;11.13;10.05;;;;;;;-0.13;100.00;96904.38;15326214;19;20028;-77
2023/03/06 23:59:44;;;;;;;11.05;10.05;;;;;;;-0.10;100.00;96890.03;15338790;19;20013;-78
